createdAt,value
2022-11-27T00:05:21.739Z,5.7
2022-11-27T00:19:52.242Z,5.7
2022-11-27T00:34:22.613Z,5.8
2022-11-27T00:48:54.119Z,5.8
2022-11-27T01:03:22.649Z,5.9
2022-11-27T01:17:52.101Z,5.7
2022-11-27T01:32:23.376Z,5.7
2022-11-27T01:46:54.788Z,5.8
2022-11-27T02:01:24.129Z,5.5
2022-11-27T02:15:55.352Z,5.3
2022-11-27T02:30:22.540Z,4.8
2022-11-27T02:44:52.273Z,4.5
2022-11-27T02:59:21.542Z,4.4
2022-11-27T03:13:51.501Z,4.3
2022-11-27T03:28:21.501Z,4.2
2022-11-27T03:42:51.376Z,4.1
2022-11-27T03:57:20.501Z,3.9
2022-11-27T04:11:57.212Z,4.2
2022-11-27T04:26:23.994Z,4.3
2022-11-27T04:40:55.178Z,4.3
2022-11-27T04:55:25.313Z,4.3
2022-11-27T05:09:55.947Z,4.2
2022-11-27T05:24:25.349Z,4.2
2022-11-27T05:38:57.112Z,4.5
2022-11-27T05:53:26.921Z,4.6
2022-11-27T06:07:57.808Z,4.5
2022-11-27T06:22:29.665Z,4.7
2022-11-27T06:37:01.202Z,4.9
2022-11-27T06:51:30.751Z,5.2
2022-11-27T07:06:00.881Z,5.2
2022-11-27T07:20:31.746Z,5.3
2022-11-27T07:35:02.834Z,5.6
2022-11-27T07:49:32.963Z,5.7
2022-11-27T08:04:04.379Z,5.8
2022-11-27T08:18:34.119Z,6
2022-11-27T08:33:03.260Z,6.2
2022-11-27T08:47:34.310Z,6.1
2022-11-27T09:02:10.321Z,6.1
2022-11-27T09:16:39.590Z,5.8
2022-11-27T09:31:09.445Z,5.4
2022-11-27T09:45:41.085Z,5.7
2022-11-27T10:00:11.834Z,5.6
2022-11-27T10:14:43.812Z,5.1
2022-11-27T10:29:12.579Z,5
2022-11-27T10:43:42.962Z,5.2
2022-11-27T10:58:13.803Z,5.6
2022-11-27T11:12:45.596Z,5.4
2022-11-27T11:27:16.400Z,5.1
2022-11-27T11:41:53.727Z,5
2022-11-27T11:56:20.666Z,4.6
2022-11-27T12:10:49.899Z,4.3
2022-11-27T12:25:20.847Z,4.3
2022-11-27T12:39:51.697Z,4.4
2022-11-27T12:54:22.793Z,4.3
2022-11-27T13:08:53.287Z,3.7
2022-11-27T13:23:24.486Z,4.3
2022-11-27T13:37:55.293Z,4.5
2022-11-27T13:52:24.720Z,4.6
2022-11-27T14:06:54.702Z,4.5
2022-11-27T14:21:23.296Z,4.4
2022-11-27T14:35:53.524Z,4.6
2022-11-27T14:50:23.556Z,4.2
2022-11-27T15:04:53.566Z,4.4
2022-11-27T15:19:23.712Z,4.2
2022-11-27T15:33:56.066Z,4.1
2022-11-27T15:48:26.834Z,4.5
2022-11-27T16:02:55.863Z,4.3
2022-11-27T16:17:28.659Z,3.7
2022-11-27T16:31:58.377Z,3.8
2022-11-27T16:46:28.210Z,3.5
2022-11-27T17:00:58.496Z,3.7
2022-11-27T17:15:41.191Z,3.7
2022-11-27T17:30:03.856Z,3.6
2022-11-27T17:44:34.288Z,4
2022-11-27T17:59:06.640Z,4.5
2022-11-27T18:13:34.919Z,4.3
2022-11-27T18:28:04.882Z,4.6
2022-11-27T18:42:34.942Z,4.6
2022-11-27T18:57:00.601Z,4.4
2022-11-27T19:11:31.051Z,4.6
2022-11-27T19:26:02.330Z,4.3
2022-11-27T19:40:32.129Z,4.6
2022-11-27T19:55:01.648Z,4.3
2022-11-27T20:09:32.159Z,4.7
2022-11-27T20:24:01.910Z,4.5
2022-11-27T20:38:32.243Z,4.5
2022-11-27T20:53:02.023Z,4.5
2022-11-27T21:07:32.405Z,4.6
2022-11-27T21:22:03.363Z,4.9
2022-11-27T21:36:33.714Z,4.9
2022-11-27T21:51:04.377Z,4.9
2022-11-27T22:05:34.921Z,4.7
2022-11-27T22:20:05.788Z,4.9
2022-11-27T22:34:37.802Z,5.4
2022-11-27T22:49:07.802Z,4.6
2022-11-27T23:03:38.984Z,4.5
2022-11-27T23:18:07.800Z,4.4
2022-11-27T23:32:38.278Z,4.8
2022-11-27T23:47:09.671Z,4.4
